Time,TemperatureF,DewpointF,PressureIn,WindDirection,WindDirectionDegrees,WindSpeedMPH,WindSpeedGustMPH,Humidity,HourlyPrecipIn,Conditions,Clouds,dailyrainin,SoftwareType,DateUTC
2013-01-13 00:02:00,-17.0,-23.0,-100.00,NW,315,1.0,1.0,72,-99.99,,,-99.99,,2013-01-13 08:02:00,
2013-01-13 00:11:00,-17.0,-24.0,-100.00,NW,315,0.0,2.0,72,-99.99,,,-99.99,,2013-01-13 08:11:00,
2013-01-13 00:22:00,-17.0,-24.0,-100.00,NW,315,0.0,2.0,72,-99.99,,,-99.99,,2013-01-13 08:22:00,
2013-01-13 00:32:00,-18.0,-24.0,-100.00,West,270,0.0,1.0,72,-99.99,,,-99.99,,2013-01-13 08:32:00,
2013-01-13 00:42:00,-18.0,-24.0,-100.00,NW,315,0.0,1.0,74,-99.99,,,-99.99,,2013-01-13 08:42:00,
2013-01-13 00:52:00,-18.0,-24.0,-100.00,NW,315,0.0,1.0,73,-99.99,,,-99.99,,2013-01-13 08:52:00,
2013-01-13 01:02:00,-18.0,-24.0,-100.00,NW,315,0.0,1.0,73,-99.99,,,-99.99,,2013-01-13 09:02:00,
2013-01-13 01:11:00,-18.0,-24.0,-100.00,North,-999,0.0,0.0,74,-99.99,,,-99.99,,2013-01-13 09:11:00,
2013-01-13 01:22:00,-18.0,-24.0,-100.00,North,-999,0.0,0.0,74,-99.99,,,-99.99,,2013-01-13 09:22:00,
2013-01-13 01:32:00,-19.0,-25.0,-100.00,North,-999,0.0,0.0,73,-99.99,,,-99.99,,2013-01-13 09:32:00,
2013-01-13 01:42:00,-19.0,-25.0,-100.00,North,-999,0.0,0.0,72,-99.99,,,-99.99,,2013-01-13 09:42:00,
2013-01-13 01:52:00,-19.0,-25.0,-100.00,North,-999,0.0,0.0,72,-99.99,,,-99.99,,2013-01-13 09:52:00,
2013-01-13 02:02:00,-20.0,-26.0,-100.00,North,0,1.0,2.0,72,-99.99,,,-99.99,,2013-01-13 10:02:00,
2013-01-13 02:11:00,-20.0,-26.0,-100.00,West,270,1.0,1.0,73,-99.99,,,-99.99,,2013-01-13 10:11:00,
2013-01-13 02:22:00,-20.0,-26.0,-100.00,West,270,1.0,1.0,73,-99.99,,,-99.99,,2013-01-13 10:22:00,
2013-01-13 02:32:00,-20.0,-26.0,-100.00,NW,315,0.0,1.0,72,-99.99,,,-99.99,,2013-01-13 10:32:00,
2013-01-13 02:42:00,-20.0,-27.0,-100.00,NW,315,0.0,1.0,71,-99.99,,,-99.99,,2013-01-13 10:42:00,
2013-01-13 02:52:00,-20.0,-27.0,-100.00,NW,315,0.0,1.0,71,-99.99,,,-99.99,,2013-01-13 10:52:00,
2013-01-13 03:02:00,-21.0,-27.0,-100.00,North,-999,0.0,0.0,71,-99.99,,,-99.99,,2013-01-13 11:02:00,
2013-01-13 03:12:00,-21.0,-27.0,-100.00,SW,225,1.0,1.0,72,-99.99,,,-99.99,,2013-01-13 11:12:00,
2013-01-13 03:22:00,-21.0,-27.0,-100.00,SW,225,1.0,1.0,72,-99.99,,,-99.99,,2013-01-13 11:22:00,
2013-01-13 03:32:00,-21.0,-27.0,-100.00,North,-999,0.0,0.0,72,-99.99,,,-99.99,,2013-01-13 11:32:00,
2013-01-13 03:42:00,-21.0,-27.0,-100.00,North,0,1.0,1.0,72,-99.99,,,-99.99,,2013-01-13 11:42:00,
2013-01-13 03:52:00,-21.0,-27.0,-100.00,North,0,1.0,1.0,72,-99.99,,,-99.99,,2013-01-13 11:52:00,
2013-01-13 04:02:00,-21.0,-27.0,-100.00,NE,45,0.0,1.0,73,-99.99,,,-99.99,,2013-01-13 12:02:00,
2013-01-13 04:12:00,-22.0,-28.0,-100.00,West,270,2.0,2.0,72,-99.99,,,-99.99,,2013-01-13 12:12:00,
2013-01-13 04:22:00,-22.0,-28.0,-100.00,West,270,2.0,2.0,72,-99.99,,,-99.99,,2013-01-13 12:22:00,
2013-01-13 04:32:00,-22.0,-28.0,-100.00,West,270,0.0,1.0,72,-99.99,,,-99.99,,2013-01-13 12:32:00,
2013-01-13 04:42:00,-22.0,-29.0,-100.00,North,-999,0.0,0.0,71,-99.99,,,-99.99,,2013-01-13 12:42:00,
2013-01-13 04:53:00,-22.0,-29.0,-100.00,North,-999,0.0,0.0,71,-99.99,,,-99.99,,2013-01-13 12:53:00,
2013-01-13 05:02:00,-22.0,-28.0,-100.00,North,-999,0.0,0.0,73,-99.99,,,-99.99,,2013-01-13 13:02:00,
2013-01-13 05:12:00,-22.0,-28.0,-100.00,North,-999,0.0,0.0,71,-99.99,,,-99.99,,2013-01-13 13:12:00,
2013-01-13 05:22:00,-22.0,-28.0,-100.00,North,-999,0.0,0.0,71,-99.99,,,-99.99,,2013-01-13 13:22:00,
2013-01-13 05:32:00,-22.0,-28.0,-100.00,North,-999,0.0,0.0,72,-99.99,,,-99.99,,2013-01-13 13:32:00,
2013-01-13 05:42:00,-23.0,-29.0,-100.00,North,-999,0.0,0.0,71,-99.99,,,-99.99,,2013-01-13 13:42:00,
2013-01-13 05:53:00,-23.0,-29.0,-100.00,North,-999,0.0,0.0,71,-99.99,,,-99.99,,2013-01-13 13:53:00,
2013-01-13 06:02:00,-23.0,-29.0,-100.00,North,0,0.0,1.0,73,-99.99,,,-99.99,,2013-01-13 14:02:00,
2013-01-13 06:12:00,-23.0,-29.0,-100.00,North,0,0.0,1.0,71,-99.99,,,-99.99,,2013-01-13 14:12:00,
2013-01-13 06:22:00,-23.0,-29.0,-100.00,North,0,0.0,1.0,71,-99.99,,,-99.99,,2013-01-13 14:22:00,
2013-01-13 06:32:00,-23.0,-29.0,-100.00,North,-999,0.0,0.0,72,-99.99,,,-99.99,,2013-01-13 14:32:00,
2013-01-13 06:42:00,-23.0,-29.0,-100.00,NW,315,0.0,1.0,71,-99.99,,,-99.99,,2013-01-13 14:42:00,
2013-01-13 06:53:00,-23.0,-29.0,-100.00,NW,315,0.0,1.0,71,-99.99,,,-99.99,,2013-01-13 14:53:00,
2013-01-13 07:02:00,-23.0,-29.0,-100.00,NW,315,0.0,1.0,71,-99.99,,,-99.99,,2013-01-13 15:02:00,
2013-01-13 07:12:00,-23.0,-30.0,-100.00,NW,315,0.0,2.0,71,-99.99,,,-99.99,,2013-01-13 15:12:00,
2013-01-13 07:22:00,-23.0,-30.0,-100.00,NW,315,0.0,2.0,71,-99.99,,,-99.99,,2013-01-13 15:22:00,
2013-01-13 07:33:00,-24.0,-30.0,-100.00,North,0,0.0,1.0,70,-99.99,,,-99.99,,2013-01-13 15:33:00,
2013-01-13 07:42:00,-23.0,-29.0,-100.00,North,0,0.0,1.0,72,-99.99,,,-99.99,,2013-01-13 15:42:00,
2013-01-13 07:53:00,-23.0,-29.0,-100.00,North,0,0.0,1.0,72,-99.99,,,-99.99,,2013-01-13 15:53:00,
2013-01-13 08:03:00,-24.0,-30.0,-100.00,SE,135,0.0,1.0,71,-99.99,,,-99.99,,2013-01-13 16:03:00,
2013-01-13 08:12:00,-23.0,-29.0,-100.00,West,270,1.0,1.0,71,-99.99,,,-99.99,,2013-01-13 16:12:00,
2013-01-13 08:22:00,-23.0,-29.0,-100.00,West,270,1.0,1.0,71,-99.99,,,-99.99,,2013-01-13 16:22:00,
2013-01-13 08:33:00,-20.0,-28.0,-100.00,West,270,0.0,1.0,67,-99.99,,,-99.99,,2013-01-13 16:33:00,
2013-01-13 08:42:00,-19.0,-26.0,-100.00,North,-999,0.0,0.0,69,-99.99,,,-99.99,,2013-01-13 16:42:00,
2013-01-13 08:53:00,-19.0,-26.0,-100.00,North,-999,0.0,0.0,69,-99.99,,,-99.99,,2013-01-13 16:53:00,
2013-01-13 09:02:00,-13.0,-23.0,-100.00,North,-999,0.0,0.0,60,-99.99,,,-99.99,,2013-01-13 17:02:00,
2013-01-13 09:12:00,-11.0,-21.0,-100.00,North,-999,0.0,0.0,60,-99.99,,,-99.99,,2013-01-13 17:12:00,
2013-01-13 09:22:00,-11.0,-21.0,-100.00,North,-999,0.0,0.0,60,-99.99,,,-99.99,,2013-01-13 17:22:00,
2013-01-13 09:32:00,-5.0,-17.0,-100.00,North,-999,0.0,0.0,55,-99.99,,,-99.99,,2013-01-13 17:32:00,
2013-01-13 09:42:00,-9.0,-18.0,-100.00,SE,135,1.0,1.0,64,-99.99,,,-99.99,,2013-01-13 17:42:00,
2013-01-13 09:53:00,-9.0,-18.0,-100.00,SE,135,1.0,1.0,64,-99.99,,,-99.99,,2013-01-13 17:53:00,
2013-01-13 10:02:00,-12.0,-20.0,-100.00,East,90,2.0,4.0,69,-99.99,,,-99.99,,2013-01-13 18:02:00,
2013-01-13 10:12:00,-13.0,-20.0,-100.00,South,180,2.0,3.0,69,-99.99,,,-99.99,,2013-01-13 18:12:00,
2013-01-13 10:22:00,-13.0,-20.0,-100.00,South,180,2.0,3.0,69,-99.99,,,-99.99,,2013-01-13 18:22:00,
2013-01-13 10:32:00,-11.0,-19.0,-100.00,SE,135,3.0,4.0,67,-99.99,,,-99.99,,2013-01-13 18:32:00,
2013-01-13 10:42:00,-9.0,-18.0,-100.00,East,90,1.0,3.0,64,-99.99,,,-99.99,,2013-01-13 18:42:00,
2013-01-13 10:53:00,-9.0,-18.0,-100.00,East,90,1.0,3.0,64,-99.99,,,-99.99,,2013-01-13 18:53:00,
2013-01-13 11:02:00,-7.0,-16.0,-100.00,East,90,1.0,3.0,64,-99.99,,,-99.99,,2013-01-13 19:02:00,
2013-01-13 11:12:00,-6.0,-17.0,-100.00,East,90,1.0,2.0,59,-99.99,,,-99.99,,2013-01-13 19:12:00,
2013-01-13 11:32:00,-5.0,-15.0,-100.00,East,90,2.0,3.0,60,-99.99,,,-99.99,,2013-01-13 19:32:00,
2013-01-13 11:42:00,-6.0,-15.0,-100.00,East,90,3.0,4.0,63,-99.99,,,-99.99,,2013-01-13 19:42:00,
2013-01-13 11:53:00,-6.0,-15.0,-100.00,East,90,3.0,4.0,63,-99.99,,,-99.99,,2013-01-13 19:53:00,
2013-01-13 12:02:00,-2.0,-12.0,-100.00,East,90,1.0,2.0,62,-99.99,,,-99.99,,2013-01-13 20:02:00,
2013-01-13 12:12:00,-1.0,-10.0,-100.00,SE,135,2.0,3.0,63,-99.99,,,-99.99,,2013-01-13 20:12:00,
2013-01-13 12:22:00,-1.0,-10.0,-100.00,SE,135,2.0,3.0,63,-99.99,,,-99.99,,2013-01-13 20:22:00,
2013-01-13 12:32:00,4.0,-6.0,-100.00,East,90,2.0,3.0,63,-99.99,,,-99.99,,2013-01-13 20:32:00,
2013-01-13 12:43:00,5.0,-4.0,-100.00,East,90,2.0,3.0,64,-99.99,,,-99.99,,2013-01-13 20:43:00,
2013-01-13 12:53:00,5.0,-4.0,-100.00,East,90,2.0,3.0,64,-99.99,,,-99.99,,2013-01-13 20:53:00,
2013-01-13 13:02:00,7.0,-3.0,-100.00,East,90,3.0,3.0,62,-99.99,,,-99.99,,2013-01-13 21:02:00,
2013-01-13 13:12:00,5.0,-5.0,-100.00,East,90,1.0,4.0,62,-99.99,,,-99.99,,2013-01-13 21:12:00,
2013-01-13 13:22:00,5.0,-5.0,-100.00,East,90,1.0,4.0,62,-99.99,,,-99.99,,2013-01-13 21:22:00,
2013-01-13 13:32:00,10.0,-4.0,-100.00,East,90,3.0,4.0,52,-99.99,,,-99.99,,2013-01-13 21:32:00,
2013-01-13 13:42:00,11.0,-3.0,-100.00,East,90,2.0,4.0,54,-99.99,,,-99.99,,2013-01-13 21:42:00,
2013-01-13 13:53:00,11.0,-3.0,-100.00,East,90,2.0,4.0,54,-99.99,,,-99.99,,2013-01-13 21:53:00,
2013-01-13 14:02:00,15.0,-3.0,-100.00,East,90,2.0,3.0,44,-99.99,,,-99.99,,2013-01-13 22:02:00,
2013-01-13 14:12:00,16.0,-2.0,-100.00,SE,135,1.0,3.0,43,-99.99,,,-99.99,,2013-01-13 22:12:00,
2013-01-13 14:22:00,16.0,-2.0,-100.00,SE,135,1.0,3.0,43,-99.99,,,-99.99,,2013-01-13 22:22:00,
2013-01-13 14:33:00,19.0,-2.0,-100.00,SE,135,1.0,2.0,38,-99.99,,,-99.99,,2013-01-13 22:33:00,
2013-01-13 14:42:00,19.0,-2.0,-100.00,SE,135,1.0,2.0,38,-99.99,,,-99.99,,2013-01-13 22:42:00,
2013-01-13 14:52:00,19.0,-2.0,-100.00,SE,135,1.0,2.0,38,-99.99,,,-99.99,,2013-01-13 22:52:00,
2013-01-13 15:02:00,22.0,-4.0,-100.00,East,90,1.0,3.0,32,-99.99,,,-99.99,,2013-01-13 23:02:00,
2013-01-13 15:12:00,22.0,-3.0,-100.00,East,90,3.0,4.0,32,-99.99,,,-99.99,,2013-01-13 23:12:00,
2013-01-13 15:22:00,22.0,-3.0,-100.00,East,90,3.0,4.0,32,-99.99,,,-99.99,,2013-01-13 23:22:00,
2013-01-13 15:32:00,17.0,-2.0,-100.00,East,90,1.0,4.0,42,-99.99,,,-99.99,,2013-01-13 23:32:00,
2013-01-13 15:42:00,16.0,-1.0,-100.00,SE,135,3.0,4.0,46,-99.99,,,-99.99,,2013-01-13 23:42:00,
2013-01-13 16:02:00,14.0,-3.0,-100.00,SE,135,2.0,3.0,47,-99.99,,,-99.99,,2013-01-14 00:02:00,
2013-01-13 16:12:00,16.0,-2.0,-100.00,East,90,2.0,4.0,44,-99.99,,,-99.99,,2013-01-14 00:12:00,
2013-01-13 16:22:00,16.0,-2.0,-100.00,East,90,2.0,4.0,44,-99.99,,,-99.99,,2013-01-14 00:22:00,
2013-01-13 16:32:00,15.0,-3.0,-100.00,East,90,2.0,3.0,45,-99.99,,,-99.99,,2013-01-14 00:32:00,
2013-01-13 16:42:00,12.0,-3.0,-100.00,SE,135,1.0,3.0,49,-99.99,,,-99.99,,2013-01-14 00:42:00,
2013-01-13 16:53:00,12.0,-3.0,-100.00,SE,135,1.0,3.0,49,-99.99,,,-99.99,,2013-01-14 00:53:00,
2013-01-13 17:02:00,11.0,-4.0,-100.00,East,90,2.0,3.0,50,-99.99,,,-99.99,,2013-01-14 01:02:00,
2013-01-13 17:12:00,8.0,-4.0,-100.00,East,90,1.0,3.0,58,-99.99,,,-99.99,,2013-01-14 01:12:00,
2013-01-13 17:22:00,8.0,-4.0,-100.00,East,90,1.0,3.0,58,-99.99,,,-99.99,,2013-01-14 01:22:00,
2013-01-13 17:32:00,6.0,-4.0,-100.00,SE,135,0.0,1.0,62,-99.99,,,-99.99,,2013-01-14 01:32:00,
2013-01-13 17:42:00,7.0,-3.0,-100.00,South,180,0.0,1.0,61,-99.99,,,-99.99,,2013-01-14 01:42:00,
2013-01-13 18:02:00,7.0,-4.0,-100.00,SW,225,1.0,2.0,61,-99.99,,,-99.99,,2013-01-14 02:02:00,
2013-01-13 18:12:00,7.0,-5.0,-100.00,West,270,1.0,1.0,58,-99.99,,,-99.99,,2013-01-14 02:12:00,
2013-01-13 18:22:00,7.0,-5.0,-100.00,West,270,1.0,1.0,58,-99.99,,,-99.99,,2013-01-14 02:22:00,
2013-01-13 18:32:00,5.0,-6.0,-100.00,NW,315,0.0,3.0,62,-99.99,,,-99.99,,2013-01-14 02:32:00,
2013-01-13 18:42:00,4.0,-6.0,-100.00,North,-999,0.0,0.0,62,-99.99,,,-99.99,,2013-01-14 02:42:00,
2013-01-13 18:53:00,4.0,-6.0,-100.00,North,-999,0.0,0.0,62,-99.99,,,-99.99,,2013-01-14 02:53:00,
2013-01-13 19:02:00,3.0,-7.0,-100.00,North,-999,0.0,0.0,62,-99.99,,,-99.99,,2013-01-14 03:02:00,
2013-01-13 19:12:00,2.0,-7.0,-100.00,West,270,1.0,2.0,63,-99.99,,,-99.99,,2013-01-14 03:12:00,
2013-01-13 19:32:00,-1.0,-8.0,-100.00,SW,225,0.0,1.0,70,-99.99,,,-99.99,,2013-01-14 03:32:00,
2013-01-13 19:42:00,0.0,-8.0,-100.00,SW,225,0.0,1.0,71,-99.99,,,-99.99,,2013-01-14 03:42:00,
2013-01-13 19:53:00,0.0,-8.0,-100.00,SW,225,0.0,1.0,71,-99.99,,,-99.99,,2013-01-14 03:53:00,
2013-01-13 20:02:00,-1.0,-9.0,-100.00,SW,225,1.0,2.0,68,-99.99,,,-99.99,,2013-01-14 04:02:00,
2013-01-13 20:12:00,-1.0,-9.0,-100.00,NW,315,0.0,2.0,69,-99.99,,,-99.99,,2013-01-14 04:12:00,
2013-01-13 20:32:00,-2.0,-9.0,-100.00,West,270,0.0,1.0,71,-99.99,,,-99.99,,2013-01-14 04:32:00,
2013-01-13 20:42:00,-2.0,-9.0,-100.00,North,0,1.0,2.0,72,-99.99,,,-99.99,,2013-01-14 04:42:00,
2013-01-13 20:53:00,-2.0,-9.0,-100.00,North,0,1.0,2.0,72,-99.99,,,-99.99,,2013-01-14 04:53:00,
2013-01-13 21:03:00,-4.0,-10.0,-100.00,North,0,0.0,1.0,75,-99.99,,,-99.99,,2013-01-14 05:03:00,
2013-01-13 21:12:00,-4.0,-10.0,-100.00,North,-999,0.0,0.0,76,-99.99,,,-99.99,,2013-01-14 05:12:00,
2013-01-13 21:22:00,-4.0,-10.0,-100.00,North,-999,0.0,0.0,76,-99.99,,,-99.99,,2013-01-14 05:22:00,
2013-01-13 21:32:00,-4.0,-10.0,-100.00,West,270,0.0,1.0,73,-99.99,,,-99.99,,2013-01-14 05:32:00,
2013-01-13 21:42:00,-5.0,-11.0,-100.00,West,270,2.0,2.0,72,-99.99,,,-99.99,,2013-01-14 05:42:00,
2013-01-13 21:52:00,-5.0,-11.0,-100.00,West,270,2.0,2.0,72,-99.99,,,-99.99,,2013-01-14 05:52:00,
2013-01-13 22:02:00,-5.0,-11.0,-100.00,NW,315,1.0,2.0,73,-99.99,,,-99.99,,2013-01-14 06:02:00,
2013-01-13 22:12:00,-5.0,-11.0,-100.00,NW,315,1.0,3.0,74,-99.99,,,-99.99,,2013-01-14 06:12:00,
2013-01-13 22:22:00,-5.0,-11.0,-100.00,NW,315,1.0,3.0,74,-99.99,,,-99.99,,2013-01-14 06:22:00,
2013-01-13 22:32:00,-6.0,-12.0,-100.00,West,270,1.0,1.0,76,-99.99,,,-99.99,,2013-01-14 06:32:00,
2013-01-13 23:02:00,-7.0,-14.0,-100.00,North,-999,0.0,0.0,73,-99.99,,,-99.99,,2013-01-14 07:02:00,
2013-01-13 23:12:00,-8.0,-13.0,-100.00,North,0,1.0,2.0,76,-99.99,,,-99.99,,2013-01-14 07:12:00,
2013-01-13 23:22:00,-8.0,-13.0,-100.00,North,0,1.0,2.0,76,-99.99,,,-99.99,,2013-01-14 07:22:00,
2013-01-13 23:32:00,-9.0,-15.0,-100.00,North,-999,0.0,0.0,74,-99.99,,,-99.99,,2013-01-14 07:32:00,
2013-01-13 23:42:00,-9.0,-15.0,-100.00,SW,225,0.0,1.0,75,-99.99,,,-99.99,,2013-01-14 07:42:00,
2013-01-13 23:52:00,-9.0,-15.0,-100.00,SW,225,0.0,1.0,75,-99.99,,,-99.99,,2013-01-14 07:52:00,